createdAt,value
2018-03-23T00:00:39.638Z,5.82
2018-03-23T00:01:49.700Z,5.85
2018-03-23T00:02:59.493Z,5.84
2018-03-23T00:04:09.302Z,5.98
2018-03-23T00:05:19.095Z,5.77
2018-03-23T00:06:28.958Z,5.81
2018-03-23T00:07:38.765Z,5.84
2018-03-23T00:08:48.844Z,5.75
2018-03-23T00:09:58.918Z,5.81
2018-03-23T00:11:08.446Z,5.7
2018-03-23T00:12:18.241Z,5.7
2018-03-23T00:13:28.073Z,5.66
2018-03-23T00:14:37.874Z,5.63
2018-03-23T00:15:47.944Z,5.75
2018-03-23T00:16:57.741Z,5.64
2018-03-23T00:18:07.543Z,5.57
2018-03-23T00:19:17.370Z,5.62
2018-03-23T00:20:26.922Z,5.63
2018-03-23T00:21:36.966Z,5.49
2018-03-23T00:22:46.758Z,5.59
2018-03-23T00:23:56.610Z,5.54
2018-03-23T00:25:06.739Z,5.54
2018-03-23T00:26:16.268Z,5.59
2018-03-23T00:27:26.350Z,5.59
2018-03-23T00:28:36.425Z,5.59
2018-03-23T00:29:46.266Z,5.57
2018-03-23T00:30:56.068Z,5.66
2018-03-23T00:32:05.852Z,5.57
2018-03-23T00:33:15.894Z,5.62
2018-03-23T00:34:25.969Z,5.64
2018-03-23T00:35:36.085Z,5.69
2018-03-23T00:36:45.872Z,5.64
2018-03-23T00:37:55.929Z,5.66
2018-03-23T00:39:05.481Z,5.66
2018-03-23T00:40:15.269Z,5.69
2018-03-23T00:41:25.081Z,5.66
2018-03-23T00:42:34.862Z,5.67
2018-03-23T00:43:44.914Z,5.67
2018-03-23T00:44:54.469Z,5.73
2018-03-23T00:46:04.541Z,5.75
2018-03-23T00:47:14.719Z,5.72
2018-03-23T00:48:24.524Z,5.66
2018-03-23T00:49:34.063Z,5.69
2018-03-23T00:50:44.137Z,5.69
2018-03-23T00:51:53.955Z,5.59
2018-03-23T00:53:04.007Z,5.59
2018-03-23T00:54:14.054Z,5.62
2018-03-23T00:55:24.118Z,5.59
2018-03-23T00:56:34.180Z,5.48
2018-03-23T00:57:43.707Z,5.49
2018-03-23T00:58:53.772Z,5.49
2018-03-23T01:00:03.588Z,5.46
2018-03-23T01:01:13.380Z,5.48
2018-03-23T01:02:23.181Z,5.48
2018-03-23T01:03:32.979Z,5.42
2018-03-23T01:04:42.563Z,5.46
2018-03-23T01:05:52.358Z,5.44
2018-03-23T01:07:02.148Z,5.39
2018-03-23T01:08:11.697Z,5.37
2018-03-23T01:09:21.520Z,5.37
2018-03-23T01:10:30.834Z,5.44
2018-03-23T01:11:40.366Z,5.45
2018-03-23T01:12:50.447Z,5.36
2018-03-23T01:14:00.244Z,5.41
2018-03-23T01:15:10.306Z,5.44
2018-03-23T01:16:20.110Z,5.27
2018-03-23T01:17:30.164Z,5.39
2018-03-23T01:18:40.217Z,5.41
2018-03-23T01:19:50.288Z,5.42
2018-03-23T01:21:00.080Z,5.41
2018-03-23T01:22:09.606Z,5.42
2018-03-23T01:23:19.678Z,5.39
2018-03-23T01:24:29.746Z,5.31
2018-03-23T01:25:39.283Z,5.34
2018-03-23T01:26:49.351Z,5.41
2018-03-23T01:27:59.455Z,5.31
2018-03-23T01:29:09.244Z,5.27
2018-03-23T01:30:18.515Z,5.27
2018-03-23T01:31:28.034Z,5.24
2018-03-23T01:32:37.831Z,5.2
2018-03-23T01:33:47.365Z,5.31
2018-03-23T01:34:57.152Z,5.27
2018-03-23T01:36:06.941Z,5.2
2018-03-23T01:37:16.744Z,5.24
2018-03-23T01:38:26.528Z,5.31
2018-03-23T01:39:36.326Z,5.23
2018-03-23T01:40:46.373Z,5.3
2018-03-23T01:41:56.435Z,5.33
2018-03-23T01:43:06.234Z,5.3
2018-03-23T01:44:15.765Z,5.23
2018-03-23T01:45:25.578Z,5.31
2018-03-23T01:46:35.657Z,5.26
2018-03-23T01:47:45.723Z,5.31
2018-03-23T01:48:54.996Z,5.33
2018-03-23T01:50:04.803Z,5.34
2018-03-23T01:51:14.915Z,5.33
2018-03-23T01:52:24.978Z,5.28
2018-03-23T01:53:35.039Z,5.24
2018-03-23T01:54:45.104Z,5.23
2018-03-23T01:55:54.631Z,5.13
2018-03-23T01:57:04.215Z,5.18
2018-03-23T01:58:14.014Z,5.15
2018-03-23T01:59:23.547Z,5.12
2018-03-23T02:00:33.611Z,5.09
2018-03-23T02:01:43.687Z,5.16
2018-03-23T02:02:53.766Z,5.15
2018-03-23T02:04:03.567Z,5.24
2018-03-23T02:05:13.641Z,5.05
2018-03-23T02:06:23.178Z,5.05
2018-03-23T02:07:32.715Z,5.16
2018-03-23T02:08:42.563Z,5.08
2018-03-23T02:09:52.357Z,5.06
2018-03-23T02:11:02.155Z,5.09
2018-03-23T02:12:11.691Z,5.02
2018-03-23T02:13:21.487Z,5.06
2018-03-23T02:14:31.276Z,5.09
2018-03-23T02:15:41.325Z,5.09
2018-03-23T02:16:51.384Z,5.05
2018-03-23T02:18:00.911Z,5.05
2018-03-23T02:19:10.694Z,5.05
2018-03-23T02:20:20.814Z,5.12
2018-03-23T02:21:30.381Z,5.13
2018-03-23T02:22:40.571Z,5.08
2018-03-23T02:23:50.355Z,5.1
2018-03-23T02:25:00.157Z,5.09
2018-03-23T02:26:10.238Z,5.12
2018-03-23T02:27:20.301Z,5.12
2018-03-23T02:28:30.348Z,5.06
2018-03-23T02:29:39.889Z,5.1
2018-03-23T02:30:49.967Z,5.1
2018-03-23T02:31:59.498Z,5.18
2018-03-23T02:33:09.585Z,5.13
2018-03-23T02:34:19.665Z,5.12
2018-03-23T02:35:29.770Z,5.16
2018-03-23T02:36:39.567Z,5.13
2018-03-23T02:37:49.382Z,5.2
2018-03-23T02:38:59.452Z,5.23
2018-03-23T02:40:09.530Z,5.28
2018-03-23T02:41:18.829Z,5.36
2018-03-23T02:42:28.669Z,5.36
2018-03-23T02:43:38.801Z,5.34
2018-03-23T02:44:48.607Z,5.41
2018-03-23T02:45:58.669Z,5.46
2018-03-23T02:47:08.509Z,5.57
2018-03-23T02:48:18.580Z,5.57
2018-03-23T02:49:28.394Z,5.6
2018-03-23T02:50:38.193Z,5.6
2018-03-23T02:51:48.264Z,5.64
2018-03-23T02:52:58.361Z,5.69
2018-03-23T02:54:08.446Z,5.72
2018-03-23T02:55:17.980Z,5.77
2018-03-23T02:56:27.262Z,5.81
2018-03-23T02:57:36.819Z,5.96
2018-03-23T02:58:46.626Z,5.8
2018-03-23T02:59:56.703Z,5.82
2018-03-23T03:01:06.571Z,5.92
2018-03-23T03:02:16.624Z,5.95
2018-03-23T03:03:26.685Z,6
2018-03-23T03:04:36.748Z,5.92
2018-03-23T03:05:46.548Z,6.1
2018-03-23T03:06:56.604Z,6.07
2018-03-23T03:38:30.918Z,3.82
2018-03-23T03:39:40.988Z,3.79
2018-03-23T03:40:51.030Z,3.79
2018-03-23T03:42:01.087Z,3.86
2018-03-23T03:43:10.614Z,3.82
2018-03-23T03:44:20.776Z,3.94
2018-03-23T03:45:30.597Z,4.1
2018-03-23T03:46:40.642Z,4.15
2018-03-23T03:47:50.708Z,4.42
2018-03-23T03:49:00.759Z,4.5
2018-03-23T03:50:10.820Z,4.71
2018-03-23T03:51:20.602Z,4.85
2018-03-23T03:52:30.643Z,5.02
2018-03-23T03:53:40.465Z,5.13
2018-03-23T03:54:50.261Z,5.28
2018-03-23T03:56:00.096Z,5.37
2018-03-23T03:57:10.152Z,5.49
2018-03-23T03:58:20.212Z,5.57
2018-03-23T03:59:30.299Z,5.67
2018-03-23T04:00:40.380Z,5.72
2018-03-23T04:01:50.501Z,5.78
2018-03-23T04:03:00.565Z,5.81
2018-03-23T04:04:10.630Z,5.8
2018-03-23T04:05:20.697Z,5.92
2018-03-23T04:06:30.504Z,6.02
2018-03-23T04:07:40.559Z,6.14
2018-03-23T04:08:50.623Z,6.1
2018-03-23T04:10:00.433Z,6.07
2018-03-23T04:11:10.513Z,6.2
2018-03-23T04:12:20.557Z,6.17
2018-03-23T04:13:30.701Z,6.33
2018-03-23T04:14:40.780Z,6.29
2018-03-23T04:15:50.600Z,6.31
2018-03-23T04:17:00.685Z,6.34
2018-03-23T04:18:10.493Z,6.34
2018-03-23T04:19:20.560Z,6.39
2018-03-23T04:20:30.368Z,6.29
2018-03-23T04:21:40.418Z,6.33
2018-03-23T04:22:50.483Z,6.49
2018-03-23T04:24:00.277Z,6.47
2018-03-23T04:25:09.602Z,6.49
2018-03-23T04:26:19.654Z,6.46
2018-03-23T04:27:29.465Z,6.51
2018-03-23T04:28:39.266Z,6.46
2018-03-23T04:29:49.068Z,6.47
2018-03-23T04:30:58.910Z,6.44
2018-03-23T04:32:08.722Z,6.44
2018-03-23T04:33:18.779Z,6.55
2018-03-23T04:34:28.859Z,6.55
2018-03-23T04:35:38.935Z,6.57
2018-03-23T04:36:49.049Z,6.64
2018-03-23T04:37:58.833Z,6.49
2018-03-23T04:39:08.899Z,6.68
2018-03-23T04:40:18.952Z,6.7
2018-03-23T04:41:28.773Z,6.64
2018-03-23T04:42:38.829Z,6.65
2018-03-23T04:43:48.878Z,6.65
2018-03-23T04:44:58.667Z,6.51
2018-03-23T04:46:08.713Z,6.57
2018-03-23T04:47:18.773Z,6.61
2018-03-23T04:48:28.317Z,6.57
2018-03-23T04:49:38.123Z,6.54
2018-03-23T04:50:48.168Z,6.58
2018-03-23T04:51:58.228Z,6.54
2018-03-23T04:53:08.280Z,6.54
2018-03-23T04:54:18.128Z,6.42
2018-03-23T04:55:27.929Z,6.44
2018-03-23T04:56:38.000Z,6.54
2018-03-23T04:57:48.116Z,6.47
2018-03-23T04:58:57.647Z,6.46
2018-03-23T05:00:07.171Z,6.46
2018-03-23T05:01:16.715Z,6.47
2018-03-23T05:02:26.805Z,6.47
2018-03-23T05:03:36.870Z,6.39
2018-03-23T05:04:46.421Z,6.4
2018-03-23T05:05:56.530Z,6.42
2018-03-23T05:07:06.601Z,6.46
2018-03-23T05:08:16.394Z,6.49
2018-03-23T05:09:26.184Z,6.44
2018-03-23T05:10:36.251Z,6.46
2018-03-23T05:11:46.053Z,6.47
2018-03-23T05:12:55.854Z,6.49
2018-03-23T05:14:05.399Z,6.46
2018-03-23T05:15:14.953Z,6.44
2018-03-23T05:16:25.028Z,6.49
2018-03-23T05:17:34.783Z,6.49
2018-03-23T05:18:44.844Z,6.47
2018-03-23T05:19:54.650Z,6.46
2018-03-23T05:21:04.443Z,6.51
2018-03-23T05:22:14.253Z,6.52
2018-03-23T05:23:24.046Z,6.52
2018-03-23T05:24:34.092Z,6.58
2018-03-23T05:25:43.879Z,6.51
2018-03-23T05:26:53.680Z,6.54
2018-03-23T05:28:03.736Z,6.55
2018-03-23T05:29:13.796Z,6.62
2018-03-23T05:30:23.606Z,6.6
2018-03-23T05:31:33.666Z,6.55
2018-03-23T05:32:43.800Z,6.54
2018-03-23T05:33:53.838Z,6.6
2018-03-23T05:35:03.948Z,6.61
2018-03-23T05:36:14.030Z,6.65
2018-03-23T05:37:24.090Z,6.67
2018-03-23T05:38:33.633Z,6.68
2018-03-23T05:39:43.179Z,6.68
2018-03-23T05:40:53.036Z,6.73
2018-03-23T05:42:02.565Z,6.75
2018-03-23T05:43:12.616Z,6.72
2018-03-23T05:44:22.158Z,6.76
2018-03-23T05:45:31.685Z,6.73
2018-03-23T05:46:41.531Z,6.72
2018-03-23T05:47:51.583Z,6.75
2018-03-23T05:49:01.384Z,6.65
2018-03-23T05:50:11.445Z,6.76
2018-03-23T05:51:21.526Z,6.78
2018-03-23T05:52:31.053Z,6.7
2018-03-23T05:53:40.601Z,6.7
2018-03-23T05:54:50.646Z,6.82
2018-03-23T05:56:00.444Z,6.78
2018-03-23T05:57:10.241Z,6.82
2018-03-23T05:58:20.293Z,6.8
2018-03-23T05:59:30.093Z,6.85
2018-03-23T06:00:40.151Z,6.78
2018-03-23T06:01:50.210Z,6.9
2018-03-23T06:03:00.265Z,6.91
2018-03-23T06:04:09.805Z,6.86
2018-03-23T06:05:19.596Z,6.98
2018-03-23T06:06:29.648Z,6.95
2018-03-23T06:07:39.297Z,6.95
2018-03-23T06:08:49.085Z,6.97
2018-03-23T06:09:59.213Z,6.95
2018-03-23T06:11:09.007Z,6.94
2018-03-23T06:12:18.805Z,7.05
2018-03-23T06:13:28.587Z,7.15
2018-03-23T06:14:38.668Z,7.09
2018-03-23T06:15:48.724Z,7.18
2018-03-23T06:16:58.543Z,7.13
2018-03-23T06:18:08.607Z,7.16
2018-03-23T06:19:18.421Z,7.12
2018-03-23T06:20:28.261Z,7.16
2018-03-23T06:21:37.827Z,7.19
2018-03-23T06:22:47.887Z,7.27
2018-03-23T06:23:58.001Z,7.19
2018-03-23T06:25:08.058Z,7.29
2018-03-23T06:26:18.119Z,7.27
2018-03-23T06:27:27.705Z,7.27
2018-03-23T06:28:37.764Z,7.23
2018-03-23T06:29:47.816Z,7.26
2018-03-23T06:30:57.862Z,7.34
2018-03-23T06:32:07.408Z,7.4
2018-03-23T06:33:17.532Z,7.44
2018-03-23T06:34:27.059Z,7.41
2018-03-23T06:35:36.858Z,7.36
2018-03-23T06:36:46.639Z,7.47
2018-03-23T06:37:56.696Z,7.45
2018-03-23T06:39:06.503Z,7.49
2018-03-23T06:40:16.557Z,7.52
2018-03-23T06:41:26.186Z,7.51
2018-03-23T06:42:36.360Z,7.47
2018-03-23T06:43:45.651Z,7.54
2018-03-23T06:44:55.442Z,7.39
2018-03-23T06:46:05.522Z,7.37
2018-03-23T06:47:15.656Z,7.52
2018-03-23T06:48:24.934Z,7.49
2018-03-23T06:49:34.780Z,7.54
2018-03-23T06:50:44.910Z,7.56
2018-03-23T06:51:54.693Z,7.55
2018-03-23T06:53:04.765Z,7.61
2018-03-23T06:54:14.293Z,7.54
2018-03-23T06:55:24.346Z,7.55
2018-03-23T06:56:34.416Z,7.61
2018-03-23T06:57:44.209Z,7.61
2018-03-23T06:58:53.735Z,7.61
2018-03-23T07:00:03.782Z,7.52
2018-03-23T07:01:13.828Z,7.59
2018-03-23T07:02:23.639Z,7.58
2018-03-23T07:03:33.163Z,7.58
2018-03-23T07:04:42.962Z,7.63
2018-03-23T07:05:52.765Z,7.68
2018-03-23T07:07:02.582Z,7.7
2018-03-23T07:08:12.682Z,7.75
2018-03-23T07:09:22.215Z,7.89
2018-03-23T07:10:32.002Z,7.82
2018-03-23T07:11:42.062Z,7.83
2018-03-23T07:12:51.842Z,7.86
2018-03-23T07:14:01.907Z,7.83
2018-03-23T07:15:11.700Z,7.91
2018-03-23T07:16:21.544Z,7.82
2018-03-23T07:17:31.417Z,7.86
2018-03-23T07:18:41.215Z,7.91
2018-03-23T07:19:51.291Z,7.91
2018-03-23T07:21:01.364Z,7.95
2018-03-23T07:22:11.426Z,8.09
2018-03-23T07:23:21.228Z,8.01
2018-03-23T07:24:31.310Z,8.11
2018-03-23T07:25:41.136Z,8.19
2018-03-23T07:26:51.215Z,8.22
2018-03-23T07:28:00.757Z,8.24
2018-03-23T07:29:10.556Z,8.14
2018-03-23T07:30:20.084Z,8.28
2018-03-23T07:31:29.875Z,8.25
2018-03-23T07:32:39.935Z,8.29
2018-03-23T07:33:49.731Z,8.29
2018-03-23T07:34:59.787Z,8.34
2018-03-23T07:36:09.855Z,8.42
2018-03-23T07:37:19.127Z,8.34
2018-03-23T07:38:29.178Z,8.43
2018-03-23T07:39:38.986Z,8.35
2018-03-23T07:40:48.552Z,8.4
2018-03-23T07:41:58.083Z,8.36
2018-03-23T07:43:07.353Z,8.42
2018-03-23T07:44:16.609Z,8.4
2018-03-23T07:45:26.687Z,8.42
2018-03-23T07:46:36.760Z,8.26
2018-03-23T07:47:46.597Z,8.36
2018-03-23T07:48:56.391Z,8.28
2018-03-23T07:50:06.194Z,8.34
2018-03-23T07:51:16.265Z,8.35
2018-03-23T07:52:26.069Z,8.31
2018-03-23T07:53:36.144Z,8.32
2018-03-23T07:54:46.335Z,8.32
2018-03-23T07:55:55.862Z,8.42
2018-03-23T07:57:05.937Z,8.43
2018-03-23T07:58:16.013Z,8.42
2018-03-23T07:59:26.067Z,8.64
2018-03-23T08:00:35.354Z,8.61
2018-03-23T08:01:45.446Z,8.6
2018-03-23T08:02:55.514Z,8.68
2018-03-23T08:04:05.603Z,8.67
2018-03-23T08:05:15.686Z,8.67
2018-03-23T08:06:25.758Z,8.67
2018-03-23T08:07:35.819Z,8.71
2018-03-23T08:08:45.873Z,8.72
2018-03-23T08:09:55.934Z,8.76
2018-03-23T08:11:06.002Z,8.69
2018-03-23T08:12:16.074Z,8.68
2018-03-23T08:13:26.125Z,8.72
2018-03-23T08:14:36.253Z,8.74
2018-03-23T08:15:46.111Z,8.72
2018-03-23T08:16:56.156Z,8.86
2018-03-23T08:18:06.211Z,8.83
2018-03-23T08:19:16.019Z,8.74
2018-03-23T08:20:26.087Z,8.77
2018-03-23T08:21:36.147Z,9
2018-03-23T08:22:45.688Z,9.04
2018-03-23T08:23:55.808Z,9.17
2018-03-23T08:25:05.877Z,9.3
2018-03-23T08:26:15.938Z,9.35
2018-03-23T08:27:25.739Z,9.47
2018-03-23T08:28:35.794Z,9.59
2018-03-23T08:29:45.913Z,9.6
2018-03-23T08:30:55.983Z,9.63
2018-03-23T08:32:06.055Z,9.71
2018-03-23T08:33:16.122Z,9.8
2018-03-23T08:34:26.197Z,9.84
2018-03-23T08:35:35.739Z,9.81
2018-03-23T08:36:45.810Z,9.81
2018-03-23T08:37:55.613Z,9.85
2018-03-23T08:39:05.693Z,9.88
2018-03-23T08:40:15.775Z,10.08
2018-03-23T08:41:25.842Z,10.08
2018-03-23T08:42:35.894Z,10.14
2018-03-23T08:43:45.424Z,10.15
2018-03-23T08:44:55.514Z,10.15
2018-03-23T08:46:05.629Z,10.21
2018-03-23T08:47:14.908Z,10.28
2018-03-23T08:48:24.970Z,10.25
2018-03-23T08:49:34.517Z,10.42
2018-03-23T08:50:44.643Z,10.55
2018-03-23T08:51:54.707Z,10.52
2018-03-23T08:53:04.779Z,10.69
2018-03-23T08:54:14.091Z,10.66
2018-03-23T08:55:23.886Z,10.67
2018-03-23T08:56:33.928Z,10.7
2018-03-23T08:57:43.981Z,10.75
2018-03-23T08:58:54.057Z,10.84
2018-03-23T09:00:03.876Z,11
2018-03-23T09:01:13.965Z,11.18
2018-03-23T09:02:23.495Z,11.21
2018-03-23T09:03:33.567Z,11.24
2018-03-23T09:04:43.470Z,11.33
2018-03-23T09:05:53.282Z,11.27
2018-03-23T09:07:03.383Z,11.38
2018-03-23T09:08:13.461Z,11.42
2018-03-23T09:09:23.038Z,11.51
2018-03-23T09:10:32.599Z,11.53
2018-03-23T09:11:42.421Z,11.46
2018-03-23T09:12:52.216Z,11.61
2018-03-23T09:14:02.023Z,11.68
2018-03-23T09:15:11.826Z,11.79
2018-03-23T09:16:21.646Z,11.91
2018-03-23T09:17:30.922Z,12.05
2018-03-23T09:18:41.010Z,12.16
2018-03-23T09:19:51.093Z,12.25
2018-03-23T09:21:01.187Z,12.4
2018-03-23T09:22:11.022Z,12.56
2018-03-23T09:23:21.095Z,12.8
2018-03-23T09:24:31.175Z,12.92
2018-03-23T09:25:41.245Z,13.06
2018-03-23T09:26:50.797Z,13.07
2018-03-23T09:28:00.340Z,13.19
2018-03-23T09:29:09.891Z,13.17
2018-03-23T09:30:19.974Z,13.14
2018-03-23T09:31:29.782Z,13.17
2018-03-23T09:32:39.854Z,13.16
2018-03-23T09:33:49.676Z,13.2
2018-03-23T09:34:59.485Z,13.24
2018-03-23T09:36:09.272Z,13.2
2018-03-23T09:37:18.994Z,13.16
2018-03-23T09:38:28.731Z,13.16
2018-03-23T09:39:38.319Z,13.19
2018-03-23T09:40:47.863Z,13.25
2018-03-23T09:41:57.918Z,13.35
2018-03-23T09:43:07.993Z,13.39
2018-03-23T09:44:17.545Z,13.48
2018-03-23T09:45:27.665Z,13.63
2018-03-23T09:46:37.480Z,13.83
2018-03-23T09:47:47.566Z,13.94
2018-03-23T09:48:57.634Z,14.02
2018-03-23T09:50:07.767Z,14.11
2018-03-23T09:51:17.381Z,14.15
2018-03-23T09:52:26.912Z,14.13
2018-03-23T09:53:36.202Z,14.24
2018-03-23T09:54:46.265Z,14.26
2018-03-23T09:55:56.352Z,14.28
2018-03-23T09:57:06.192Z,14.26
2018-03-23T09:58:16.343Z,14.27
2018-03-23T09:59:26.155Z,14.27
2018-03-23T10:00:35.969Z,14.2
2018-03-23T10:01:46.030Z,14.28
2018-03-23T10:02:55.881Z,14.45
2018-03-23T10:04:06.088Z,14.48
2018-03-23T10:05:16.098Z,14.59
2018-03-23T10:06:25.640Z,14.69
2018-03-23T10:07:35.195Z,14.75
2018-03-23T10:08:45.324Z,14.94
2018-03-23T10:09:55.268Z,14.87
2018-03-23T10:11:04.537Z,15
2018-03-23T10:12:14.693Z,14.95
2018-03-23T10:13:24.570Z,14.86
2018-03-23T10:14:34.717Z,14.86
2018-03-23T10:15:44.542Z,14.75
2018-03-23T10:16:54.631Z,14.83
2018-03-23T10:18:04.748Z,14.75
2018-03-23T10:19:14.568Z,14.7
2018-03-23T10:20:24.718Z,14.67
2018-03-23T10:21:34.264Z,14.56
2018-03-23T10:22:44.488Z,14.61
2018-03-23T10:23:54.292Z,14.67
2018-03-23T10:25:04.091Z,14.56
2018-03-23T10:26:13.959Z,14.7
2018-03-23T10:27:23.794Z,14.64
2018-03-23T10:28:33.876Z,14.56
2018-03-23T10:29:44.034Z,14.57
2018-03-23T10:30:54.137Z,14.61
2018-03-23T10:32:04.286Z,14.64
2018-03-23T10:33:14.092Z,14.53
2018-03-23T10:34:23.638Z,14.64
2018-03-23T10:35:33.861Z,14.64
2018-03-23T10:36:43.665Z,14.64
2018-03-23T10:37:53.806Z,14.67
2018-03-23T10:39:03.921Z,14.67
2018-03-23T10:40:14.037Z,14.79
2018-03-23T10:41:23.586Z,14.9
2018-03-23T10:42:33.638Z,15.04
2018-03-23T10:43:43.718Z,15.04
2018-03-23T10:44:53.776Z,15.18
2018-03-23T10:46:03.852Z,15.27
2018-03-23T10:47:13.912Z,15.44
2018-03-23T10:48:23.718Z,15.45
2018-03-23T10:49:33.267Z,15.55
2018-03-23T10:50:42.565Z,15.65
2018-03-23T10:51:52.660Z,15.74
2018-03-23T10:53:02.756Z,15.83
2018-03-23T10:54:12.880Z,15.83
2018-03-23T10:55:22.963Z,15.78
2018-03-23T10:56:33.029Z,15.8
2018-03-23T10:57:42.849Z,15.83
2018-03-23T10:58:52.918Z,15.83
2018-03-23T11:00:02.993Z,15.83
2018-03-23T11:01:13.115Z,15.83
2018-03-23T11:02:22.922Z,15.75
2018-03-23T11:03:33.005Z,15.58
2018-03-23T11:04:42.598Z,15.49
2018-03-23T11:05:52.414Z,15.47
2018-03-23T11:07:02.208Z,15.45
2018-03-23T11:08:12.267Z,15.47
2018-03-23T11:09:21.818Z,15.41
2018-03-23T11:10:31.892Z,15.33
2018-03-23T11:11:41.693Z,15.3
2018-03-23T11:12:52.571Z,15.25
2018-03-23T11:14:02.488Z,15.23
2018-03-23T11:15:12.248Z,15.25
2018-03-23T11:16:21.849Z,15.3
2018-03-23T11:17:31.980Z,15.34
2018-03-23T11:18:42.197Z,15.35
2018-03-23T11:19:52.373Z,15.27
2018-03-23T11:21:02.493Z,15.37
2018-03-23T11:22:12.370Z,15.38
2018-03-23T11:23:21.972Z,15.35
2018-03-23T11:24:32.328Z,15.34
2018-03-23T11:25:42.458Z,15.27
2018-03-23T11:26:52.394Z,15.26
2018-03-23T11:28:02.254Z,15.23
2018-03-23T11:29:11.671Z,15.15
2018-03-23T11:30:21.959Z,15.25
2018-03-23T11:31:32.269Z,15.26
2018-03-23T11:32:42.426Z,15.34
2018-03-23T11:33:52.613Z,15.45
2018-03-23T11:35:02.181Z,15.65
2018-03-23T11:36:12.350Z,15.78
2018-03-23T11:37:22.462Z,15.83
2018-03-23T11:38:32.565Z,15.88
2018-03-23T11:39:42.650Z,15.75
2018-03-23T11:40:53.306Z,15.75
2018-03-23T11:42:03.658Z,15.78
2018-03-23T11:43:13.757Z,15.93
2018-03-23T11:44:24.082Z,15.98
2018-03-23T11:45:34.509Z,15.96
2018-03-23T11:46:44.608Z,15.92
2018-03-23T11:47:54.787Z,15.92
2018-03-23T11:49:04.360Z,15.96
2018-03-23T11:50:14.527Z,15.96
2018-03-23T11:51:24.707Z,16.14
2018-03-23T11:52:34.549Z,16.22
2018-03-23T11:53:44.715Z,16.34
2018-03-23T11:54:54.780Z,16.33
2018-03-23T11:56:04.871Z,16.44
2018-03-23T11:57:14.706Z,16.47
2018-03-23T11:58:24.797Z,16.55
2018-03-23T11:59:34.853Z,16.58
2018-03-23T12:00:44.939Z,16.66
2018-03-23T12:01:54.773Z,16.63
2018-03-23T12:03:04.642Z,16.62
2018-03-23T12:04:14.710Z,16.69
2018-03-23T12:05:24.869Z,16.65
2018-03-23T12:06:34.958Z,16.55
2018-03-23T12:07:45.040Z,16.58
2018-03-23T12:08:54.854Z,16.63
2018-03-23T12:10:04.929Z,16.54
2018-03-23T12:11:15.029Z,16.58
2018-03-23T12:12:25.144Z,16.47
2018-03-23T12:13:35.215Z,16.42
2018-03-23T12:14:45.307Z,16.42
2018-03-23T12:15:54.848Z,16.54
2018-03-23T12:17:04.764Z,16.58
2018-03-23T12:18:14.849Z,16.65
2018-03-23T12:19:24.925Z,16.8
2018-03-23T12:20:35.014Z,16.76
2018-03-23T12:21:45.102Z,16.69
2018-03-23T12:22:55.188Z,16.54
2018-03-23T12:24:05.275Z,16.4
2018-03-23T12:25:15.358Z,16.34
2018-03-23T12:26:25.181Z,16.13
2018-03-23T12:27:35.040Z,15.95
2018-03-23T12:28:44.934Z,15.81
2018-03-23T12:29:55.043Z,15.68
2018-03-23T12:31:05.120Z,15.53
2018-03-23T12:32:15.207Z,15.51
2018-03-23T12:33:25.333Z,15.45
2018-03-23T12:34:35.420Z,15.44
2018-03-23T12:35:45.504Z,15.4
2018-03-23T12:36:55.332Z,15.47
2018-03-23T12:38:05.621Z,15.44
2018-03-23T12:39:15.792Z,15.45
2018-03-23T12:40:25.914Z,15.44
2018-03-23T12:41:35.732Z,15.47
2018-03-23T12:42:45.818Z,15.58
2018-03-23T12:43:55.893Z,15.44
2018-03-23T12:45:05.690Z,15.41
2018-03-23T12:46:15.789Z,15.23
2018-03-23T12:47:25.870Z,15.07
2018-03-23T12:48:35.959Z,14.93
2018-03-23T12:49:46.060Z,14.89
2018-03-23T12:50:56.015Z,14.9
2018-03-23T12:52:05.634Z,14.86
2018-03-23T12:53:15.723Z,14.79
2018-03-23T12:54:25.808Z,14.7
2018-03-23T12:55:35.890Z,14.64
2018-03-23T12:56:45.962Z,14.77
2018-03-23T12:57:56.370Z,14.82
2018-03-23T12:59:06.676Z,14.89
2018-03-23T13:00:16.799Z,14.87
2018-03-23T13:01:26.907Z,14.74
2018-03-23T13:02:37.056Z,14.79
2018-03-23T13:03:46.946Z,14.75
2018-03-23T13:04:57.066Z,14.77
2018-03-23T13:06:06.673Z,14.69
2018-03-23T13:07:16.777Z,14.7
2018-03-23T13:08:26.863Z,14.77
2018-03-23T13:09:37.087Z,14.77
2018-03-23T13:10:46.905Z,14.89
2018-03-23T13:11:56.994Z,14.93
2018-03-23T13:13:07.126Z,14.82
2018-03-23T13:16:57.642Z,14.38
2018-03-23T13:18:07.518Z,14.23
2018-03-23T13:19:17.600Z,13.93
2018-03-23T13:20:27.687Z,13.69
2018-03-23T13:21:37.762Z,13.54
2018-03-23T13:22:48.211Z,13.39
2018-03-23T13:23:58.370Z,13.17
2018-03-23T13:25:08.510Z,12.88
2018-03-23T13:26:18.123Z,12.71
2018-03-23T13:27:27.548Z,12.59
2018-03-23T13:28:37.778Z,12.58
2018-03-23T13:29:47.652Z,12.52
2018-03-23T13:30:57.212Z,12.52
2018-03-23T13:32:06.521Z,12.47
2018-03-23T13:33:16.607Z,12.36
2018-03-23T13:34:26.729Z,12.33
2018-03-23T13:35:36.817Z,12.31
2018-03-23T13:36:46.897Z,12.2
2018-03-23T13:37:56.998Z,12.07
2018-03-23T13:39:07.094Z,11.95
2018-03-23T13:40:16.979Z,11.88
2018-03-23T13:41:26.793Z,11.91
2018-03-23T13:42:36.895Z,11.76
2018-03-23T13:43:47.208Z,11.68
2018-03-23T13:44:57.272Z,11.57
2018-03-23T13:46:07.370Z,11.53
2018-03-23T13:47:17.469Z,11.41
2018-03-23T13:48:27.019Z,11.34
2018-03-23T13:49:37.084Z,11.39
2018-03-23T13:50:46.392Z,11.34
2018-03-23T13:51:56.516Z,11.34
2018-03-23T13:53:06.321Z,11.2
2018-03-23T13:54:16.407Z,11.26
2018-03-23T13:55:26.228Z,11.09
2018-03-23T13:56:35.765Z,11.03
2018-03-23T13:57:45.855Z,11.05
2018-03-23T13:58:55.914Z,10.94
2018-03-23T14:00:06.042Z,10.9
2018-03-23T14:01:16.128Z,10.92
2018-03-23T14:02:26.228Z,10.9
2018-03-23T14:03:35.828Z,10.85
2018-03-23T14:04:45.939Z,10.83
2018-03-23T14:05:55.743Z,10.83
2018-03-23T14:07:05.808Z,10.77
2018-03-23T14:08:15.381Z,10.67
2018-03-23T14:09:25.281Z,10.75
2018-03-23T14:10:35.354Z,10.7
2018-03-23T14:11:45.464Z,10.76
2018-03-23T14:12:55.531Z,10.75
2018-03-23T14:14:05.648Z,10.75
2018-03-23T14:15:15.776Z,10.7
2018-03-23T14:16:25.898Z,10.77
2018-03-23T14:17:35.473Z,10.76
2018-03-23T14:18:45.354Z,10.76
2018-03-23T14:19:55.423Z,10.79
2018-03-23T14:21:05.319Z,10.79
2018-03-23T14:22:15.132Z,10.75
2018-03-23T14:23:25.087Z,10.76
2018-03-23T14:24:34.666Z,10.79
2018-03-23T14:25:44.776Z,10.91
2018-03-23T14:26:54.853Z,10.87
2018-03-23T14:28:04.673Z,10.91
2018-03-23T14:29:14.481Z,10.83
2018-03-23T14:30:24.356Z,10.85
2018-03-23T14:31:34.167Z,10.77
2018-03-23T14:32:44.507Z,10.84
2018-03-23T14:33:54.641Z,10.87
2018-03-23T14:35:04.806Z,10.83
2018-03-23T14:36:14.347Z,10.87
2018-03-23T14:37:24.432Z,10.95
2018-03-23T14:38:34.010Z,11.03
2018-03-23T14:39:44.103Z,11.05
2018-03-23T14:40:54.167Z,11
2018-03-23T14:42:03.961Z,11.06
2018-03-23T14:43:13.783Z,11.2
2018-03-23T14:44:23.340Z,11.15
2018-03-23T14:45:33.093Z,11.18
2018-03-23T14:46:43.424Z,11.2
2018-03-23T14:47:53.514Z,11.16
2018-03-23T14:49:03.363Z,11.28
2018-03-23T14:50:13.182Z,11.26
2018-03-23T14:51:23.065Z,11.24
2018-03-23T14:52:33.216Z,11.23
2018-03-23T14:53:43.085Z,11.27
2018-03-23T14:54:52.943Z,11.15
2018-03-23T14:56:02.508Z,11.16
2018-03-23T14:57:12.062Z,11.15
2018-03-23T14:58:21.922Z,11.24
2018-03-23T14:59:31.777Z,11.28
2018-03-23T15:00:41.358Z,11.35
2018-03-23T15:01:51.464Z,11.39
2018-03-23T15:03:01.342Z,11.43
2018-03-23T15:04:11.435Z,11.42
2018-03-23T15:05:21.533Z,11.42
2018-03-23T15:06:31.758Z,11.46
2018-03-23T15:07:41.562Z,11.51
2018-03-23T15:08:51.382Z,11.46
2018-03-23T15:10:01.479Z,11.41
2018-03-23T15:11:11.569Z,11.43
2018-03-23T15:12:21.664Z,11.49
2018-03-23T15:13:31.742Z,11.42
2018-03-23T15:14:41.893Z,11.45
2018-03-23T15:15:51.971Z,11.39
2018-03-23T15:17:01.780Z,11.41
2018-03-23T15:18:11.611Z,11.41
2018-03-23T15:19:21.689Z,11.41
2018-03-23T15:20:31.772Z,11.34
2018-03-23T15:21:41.904Z,11.35
2018-03-23T15:22:52.134Z,11.31
2018-03-23T15:24:02.207Z,11.3
2018-03-23T15:25:12.024Z,11.33
2018-03-23T15:26:22.156Z,11.2
2018-03-23T15:27:31.985Z,11.28
2018-03-23T15:28:41.790Z,11.34
2018-03-23T15:29:51.878Z,11.23
2018-03-23T15:31:01.942Z,11.21
2018-03-23T15:32:11.535Z,11.24
2018-03-23T15:33:21.358Z,11.21
2018-03-23T15:34:30.909Z,11.18
2018-03-23T15:35:41.043Z,11.21
2018-03-23T15:36:50.868Z,11.16
2018-03-23T15:38:00.470Z,11.15
2018-03-23T15:39:10.306Z,11.18
2018-03-23T15:40:20.386Z,11.2
2018-03-23T15:41:29.923Z,11.09
2018-03-23T15:42:39.988Z,11.15
2018-03-23T15:43:50.154Z,11.2
2018-03-23T15:44:59.708Z,11.12
2018-03-23T15:46:09.242Z,11.06
2018-03-23T15:47:19.053Z,11.08
2018-03-23T15:48:29.145Z,11.05
2018-03-23T15:49:39.035Z,11.05
2018-03-23T15:50:49.106Z,11.03
2018-03-23T15:51:59.198Z,10.98